sensor_id;sensor_type;location;lat;lon;timestamp;P1;durP1;ratioP1;P2;durP2;ratioP2
11642;SDS011;5877;50.930;6.918;2022-07-24T00:01:19;6.60;;;5.87;;
11642;SDS011;5877;50.930;6.918;2022-07-24T00:04:08;6.87;;;5.60;;
11642;SDS011;5877;50.930;6.918;2022-07-24T00:06:55;6.23;;;5.63;;
11642;SDS011;5877;50.930;6.918;2022-07-24T00:09:43;6.97;;;6.27;;
11642;SDS011;5877;50.930;6.918;2022-07-24T00:12:30;7.47;;;5.53;;
11642;SDS011;5877;50.930;6.918;2022-07-24T00:15:18;7.50;;;6.10;;
11642;SDS011;5877;50.930;6.918;2022-07-24T00:18:06;7.90;;;5.73;;
11642;SDS011;5877;50.930;6.918;2022-07-24T00:20:53;8.40;;;6.37;;
11642;SDS011;5877;50.930;6.918;2022-07-24T00:23:41;6.87;;;6.23;;
11642;SDS011;5877;50.930;6.918;2022-07-24T00:26:30;6.90;;;6.20;;
11642;SDS011;5877;50.930;6.918;2022-07-24T00:29:17;6.80;;;6.10;;
11642;SDS011;5877;50.930;6.918;2022-07-24T00:32:04;7.77;;;6.10;;
11642;SDS011;5877;50.930;6.918;2022-07-24T00:34:52;6.47;;;5.97;;
11642;SDS011;5877;50.930;6.918;2022-07-24T00:37:39;7.20;;;6.50;;
11642;SDS011;5877;50.930;6.918;2022-07-24T00:40:27;6.83;;;6.13;;
11642;SDS011;5877;50.930;6.918;2022-07-24T00:43:14;7.27;;;6.23;;
11642;SDS011;5877;50.930;6.918;2022-07-24T00:46:06;7.87;;;6.20;;
11642;SDS011;5877;50.930;6.918;2022-07-24T00:48:54;7.70;;;6.27;;
11642;SDS011;5877;50.930;6.918;2022-07-24T00:51:42;7.13;;;6.43;;
11642;SDS011;5877;50.930;6.918;2022-07-24T00:54:22;6.83;;;6.13;;
11642;SDS011;5877;50.930;6.918;2022-07-24T00:57:10;6.97;;;6.00;;
11642;SDS011;5877;50.930;6.918;2022-07-24T00:59:58;7.00;;;5.80;;
11642;SDS011;5877;50.930;6.918;2022-07-24T01:02:45;6.93;;;6.23;;
11642;SDS011;5877;50.930;6.918;2022-07-24T01:05:33;6.80;;;6.20;;
11642;SDS011;5877;50.930;6.918;2022-07-24T01:08:20;9.43;;;6.50;;
11642;SDS011;5877;50.930;6.918;2022-07-24T01:11:08;8.50;;;6.33;;
11642;SDS011;5877;50.930;6.918;2022-07-24T01:13:58;7.10;;;6.50;;
11642;SDS011;5877;50.930;6.918;2022-07-24T01:16:46;8.43;;;6.77;;
11642;SDS011;5877;50.930;6.918;2022-07-24T01:19:34;7.10;;;6.40;;
11642;SDS011;5877;50.930;6.918;2022-07-24T01:22:21;8.33;;;6.40;;
11642;SDS011;5877;50.930;6.918;2022-07-24T01:25:09;6.63;;;5.80;;
11642;SDS011;5877;50.930;6.918;2022-07-24T01:27:58;7.40;;;6.70;;
11642;SDS011;5877;50.930;6.918;2022-07-24T01:30:45;7.17;;;6.53;;
11642;SDS011;5877;50.930;6.918;2022-07-24T01:33:33;7.03;;;6.10;;
11642;SDS011;5877;50.930;6.918;2022-07-24T01:36:20;8.47;;;6.40;;
11642;SDS011;5877;50.930;6.918;2022-07-24T01:39:08;8.07;;;6.43;;
11642;SDS011;5877;50.930;6.918;2022-07-24T01:41:55;6.97;;;6.20;;
11642;SDS011;5877;50.930;6.918;2022-07-24T01:44:42;7.33;;;6.53;;
11642;SDS011;5877;50.930;6.918;2022-07-24T01:47:29;8.17;;;6.97;;
11642;SDS011;5877;50.930;6.918;2022-07-24T01:50:17;7.30;;;6.43;;
11642;SDS011;5877;50.930;6.918;2022-07-24T01:53:04;7.33;;;6.40;;
11642;SDS011;5877;50.930;6.918;2022-07-24T01:55:52;7.53;;;6.83;;
11642;SDS011;5877;50.930;6.918;2022-07-24T01:58:40;7.77;;;6.97;;
11642;SDS011;5877;50.930;6.918;2022-07-24T02:01:28;7.10;;;6.50;;
11642;SDS011;5877;50.930;6.918;2022-07-24T02:04:16;7.33;;;6.13;;
11642;SDS011;5877;50.930;6.918;2022-07-24T02:07:04;8.13;;;6.73;;
11642;SDS011;5877;50.930;6.918;2022-07-24T02:09:51;7.10;;;6.50;;
11642;SDS011;5877;50.930;6.918;2022-07-24T02:12:38;7.20;;;6.50;;
11642;SDS011;5877;50.930;6.918;2022-07-24T02:15:26;8.13;;;6.47;;
11642;SDS011;5877;50.930;6.918;2022-07-24T02:18:13;7.70;;;6.73;;
11642;SDS011;5877;50.930;6.918;2022-07-24T02:21:01;9.27;;;6.90;;
11642;SDS011;5877;50.930;6.918;2022-07-24T02:23:48;8.07;;;6.57;;
11642;SDS011;5877;50.930;6.918;2022-07-24T02:26:35;7.53;;;6.83;;
11642;SDS011;5877;50.930;6.918;2022-07-24T02:29:23;7.57;;;6.40;;
11642;SDS011;5877;50.930;6.918;2022-07-24T02:32:17;7.17;;;6.47;;
11642;SDS011;5877;50.930;6.918;2022-07-24T02:35:05;7.07;;;6.43;;
11642;SDS011;5877;50.930;6.918;2022-07-24T02:37:53;7.00;;;6.30;;
11642;SDS011;5877;50.930;6.918;2022-07-24T02:40:40;7.17;;;6.37;;
11642;SDS011;5877;50.930;6.918;2022-07-24T02:43:28;7.17;;;6.30;;
11642;SDS011;5877;50.930;6.918;2022-07-24T02:46:15;7.77;;;6.70;;
11642;SDS011;5877;50.930;6.918;2022-07-24T02:49:02;11.23;;;6.90;;
11642;SDS011;5877;50.930;6.918;2022-07-24T02:51:50;7.80;;;7.00;;
11642;SDS011;5877;50.930;6.918;2022-07-24T02:54:38;7.53;;;6.87;;
11642;SDS011;5877;50.930;6.918;2022-07-24T02:57:25;8.73;;;6.47;;
11642;SDS011;5877;50.930;6.918;2022-07-24T03:00:14;6.93;;;6.27;;
11642;SDS011;5877;50.930;6.918;2022-07-24T03:03:02;7.00;;;6.40;;
11642;SDS011;5877;50.930;6.918;2022-07-24T03:05:50;7.97;;;6.37;;
11642;SDS011;5877;50.930;6.918;2022-07-24T03:08:38;6.83;;;6.20;;
11642;SDS011;5877;50.930;6.918;2022-07-24T03:11:25;6.97;;;6.27;;
11642;SDS011;5877;50.930;6.918;2022-07-24T03:14:12;6.70;;;6.07;;
11642;SDS011;5877;50.930;6.918;2022-07-24T03:17:00;7.10;;;6.40;;
11642;SDS011;5877;50.930;6.918;2022-07-24T03:19:47;7.33;;;6.63;;
11642;SDS011;5877;50.930;6.918;2022-07-24T03:22:34;7.07;;;6.37;;
11642;SDS011;5877;50.930;6.918;2022-07-24T03:25:22;9.53;;;7.07;;
11642;SDS011;5877;50.930;6.918;2022-07-24T03:28:10;6.90;;;6.30;;
11642;SDS011;5877;50.930;6.918;2022-07-24T03:30:58;7.80;;;6.70;;
11642;SDS011;5877;50.930;6.918;2022-07-24T03:33:47;7.83;;;7.00;;
11642;SDS011;5877;50.930;6.918;2022-07-24T03:36:34;8.03;;;6.47;;
11642;SDS011;5877;50.930;6.918;2022-07-24T03:39:22;8.47;;;6.53;;
11642;SDS011;5877;50.930;6.918;2022-07-24T03:42:09;6.40;;;5.80;;
11642;SDS011;5877;50.930;6.918;2022-07-24T03:44:56;7.07;;;6.03;;
11642;SDS011;5877;50.930;6.918;2022-07-24T03:47:44;7.03;;;6.27;;
11642;SDS011;5877;50.930;6.918;2022-07-24T03:50:33;7.43;;;6.57;;
11642;SDS011;5877;50.930;6.918;2022-07-24T03:53:21;7.10;;;6.40;;
11642;SDS011;5877;50.930;6.918;2022-07-24T03:56:09;7.63;;;6.27;;
11642;SDS011;5877;50.930;6.918;2022-07-24T03:59:02;6.73;;;6.13;;
11642;SDS011;5877;50.930;6.918;2022-07-24T04:01:50;7.80;;;6.67;;
11642;SDS011;5877;50.930;6.918;2022-07-24T04:04:38;7.00;;;6.30;;
11642;SDS011;5877;50.930;6.918;2022-07-24T04:07:25;7.20;;;6.53;;
11642;SDS011;5877;50.930;6.918;2022-07-24T04:10:13;6.93;;;6.33;;
11642;SDS011;5877;50.930;6.918;2022-07-24T04:13:00;8.60;;;6.70;;
11642;SDS011;5877;50.930;6.918;2022-07-24T04:15:47;9.30;;;6.77;;
11642;SDS011;5877;50.930;6.918;2022-07-24T04:18:35;6.90;;;6.30;;
11642;SDS011;5877;50.930;6.918;2022-07-24T04:21:22;7.53;;;6.30;;
11642;SDS011;5877;50.930;6.918;2022-07-24T04:24:09;6.93;;;6.23;;
11642;SDS011;5877;50.930;6.918;2022-07-24T04:26:57;6.93;;;6.23;;
11642;SDS011;5877;50.930;6.918;2022-07-24T04:29:44;6.40;;;5.80;;
11642;SDS011;5877;50.930;6.918;2022-07-24T04:32:32;6.43;;;5.83;;
11642;SDS011;5877;50.930;6.918;2022-07-24T04:35:19;7.03;;;6.17;;
11642;SDS011;5877;50.930;6.918;2022-07-24T04:38:07;7.67;;;6.00;;
11642;SDS011;5877;50.930;6.918;2022-07-24T04:40:54;7.07;;;6.37;;
11642;SDS011;5877;50.930;6.918;2022-07-24T04:43:42;6.77;;;6.00;;
11642;SDS011;5877;50.930;6.918;2022-07-24T04:46:29;6.60;;;6.00;;
11642;SDS011;5877;50.930;6.918;2022-07-24T04:49:16;6.77;;;6.00;;
11642;SDS011;5877;50.930;6.918;2022-07-24T04:52:04;7.17;;;5.70;;
11642;SDS011;5877;50.930;6.918;2022-07-24T04:54:51;7.00;;;5.47;;
11642;SDS011;5877;50.930;6.918;2022-07-24T04:57:39;7.00;;;6.30;;
11642;SDS011;5877;50.930;6.918;2022-07-24T05:00:26;7.20;;;6.10;;
11642;SDS011;5877;50.930;6.918;2022-07-24T05:03:14;7.90;;;5.57;;
11642;SDS011;5877;50.930;6.918;2022-07-24T05:06:01;6.73;;;5.83;;
11642;SDS011;5877;50.930;6.918;2022-07-24T05:08:48;6.73;;;5.03;;
11642;SDS011;5877;50.930;6.918;2022-07-24T05:11:36;7.73;;;5.43;;
11642;SDS011;5877;50.930;6.918;2022-07-24T05:14:23;6.37;;;5.57;;
11642;SDS011;5877;50.930;6.918;2022-07-24T05:17:11;5.63;;;5.00;;
11642;SDS011;5877;50.930;6.918;2022-07-24T05:19:58;6.67;;;4.63;;
11642;SDS011;5877;50.930;6.918;2022-07-24T05:22:46;5.37;;;4.87;;
11642;SDS011;5877;50.930;6.918;2022-07-24T05:25:33;8.17;;;4.90;;
11642;SDS011;5877;50.930;6.918;2022-07-24T05:28:20;6.33;;;4.43;;
11642;SDS011;5877;50.930;6.918;2022-07-24T05:31:08;5.87;;;5.10;;
11642;SDS011;5877;50.930;6.918;2022-07-24T05:33:55;7.23;;;4.60;;
11642;SDS011;5877;50.930;6.918;2022-07-24T05:36:45;5.10;;;4.50;;
11642;SDS011;5877;50.930;6.918;2022-07-24T05:39:32;4.90;;;4.40;;
11642;SDS011;5877;50.930;6.918;2022-07-24T05:42:19;5.80;;;4.53;;
11642;SDS011;5877;50.930;6.918;2022-07-24T05:45:07;7.97;;;4.50;;
11642;SDS011;5877;50.930;6.918;2022-07-24T05:47:55;5.03;;;4.53;;
11642;SDS011;5877;50.930;6.918;2022-07-24T05:50:42;4.83;;;4.43;;
11642;SDS011;5877;50.930;6.918;2022-07-24T05:53:29;5.07;;;4.27;;
11642;SDS011;5877;50.930;6.918;2022-07-24T05:56:17;4.90;;;4.40;;
11642;SDS011;5877;50.930;6.918;2022-07-24T05:59:04;4.37;;;3.97;;
11642;SDS011;5877;50.930;6.918;2022-07-24T06:01:52;7.87;;;4.77;;
11642;SDS011;5877;50.930;6.918;2022-07-24T06:04:40;4.70;;;4.23;;
11642;SDS011;5877;50.930;6.918;2022-07-24T06:07:29;4.90;;;4.40;;
11642;SDS011;5877;50.930;6.918;2022-07-24T06:10:16;4.90;;;4.33;;
11642;SDS011;5877;50.930;6.918;2022-07-24T06:13:07;4.90;;;4.00;;
11642;SDS011;5877;50.930;6.918;2022-07-24T06:15:54;5.35;;;4.00;;
11642;SDS011;5877;50.930;6.918;2022-07-24T06:18:42;7.25;;;3.85;;
11642;SDS011;5877;50.930;6.918;2022-07-24T06:21:29;4.20;;;3.70;;
11642;SDS011;5877;50.930;6.918;2022-07-24T06:24:16;6.15;;;3.90;;
11642;SDS011;5877;50.930;6.918;2022-07-24T06:27:03;3.97;;;3.67;;
11642;SDS011;5877;50.930;6.918;2022-07-24T06:29:59;6.13;;;3.95;;
11642;SDS011;5877;50.930;6.918;2022-07-24T06:32:46;3.42;;;3.13;;
11642;SDS011;5877;50.930;6.918;2022-07-24T06:35:34;3.85;;;3.45;;
11642;SDS011;5877;50.930;6.918;2022-07-24T06:38:21;3.72;;;3.35;;
11642;SDS011;5877;50.930;6.918;2022-07-24T06:41:09;4.78;;;3.78;;
11642;SDS011;5877;50.930;6.918;2022-07-24T06:43:56;4.82;;;3.40;;
11642;SDS011;5877;50.930;6.918;2022-07-24T06:46:45;3.63;;;3.33;;
11642;SDS011;5877;50.930;6.918;2022-07-24T06:49:32;3.63;;;3.33;;
11642;SDS011;5877;50.930;6.918;2022-07-24T06:52:20;7.15;;;3.53;;
11642;SDS011;5877;50.930;6.918;2022-07-24T06:55:07;4.28;;;3.35;;
11642;SDS011;5877;50.930;6.918;2022-07-24T06:57:55;4.45;;;3.50;;
11642;SDS011;5877;50.930;6.918;2022-07-24T07:00:43;4.10;;;3.42;;
11642;SDS011;5877;50.930;6.918;2022-07-24T07:03:30;4.15;;;3.60;;
11642;SDS011;5877;50.930;6.918;2022-07-24T07:06:17;4.47;;;3.60;;
11642;SDS011;5877;50.930;6.918;2022-07-24T07:09:04;3.63;;;3.30;;
11642;SDS011;5877;50.930;6.918;2022-07-24T07:11:52;4.45;;;3.10;;
11642;SDS011;5877;50.930;6.918;2022-07-24T07:14:40;3.35;;;3.05;;
11642;SDS011;5877;50.930;6.918;2022-07-24T07:17:27;3.85;;;3.30;;
11642;SDS011;5877;50.930;6.918;2022-07-24T07:20:16;3.42;;;3.13;;
11642;SDS011;5877;50.930;6.918;2022-07-24T07:23:03;4.05;;;2.92;;
11642;SDS011;5877;50.930;6.918;2022-07-24T07:25:50;4.65;;;3.42;;
11642;SDS011;5877;50.930;6.918;2022-07-24T07:28:38;3.42;;;3.10;;
11642;SDS011;5877;50.930;6.918;2022-07-24T07:31:26;4.10;;;3.35;;
11642;SDS011;5877;50.930;6.918;2022-07-24T07:34:14;4.07;;;3.53;;
11642;SDS011;5877;50.930;6.918;2022-07-24T07:37:02;3.40;;;3.10;;
11642;SDS011;5877;50.930;6.918;2022-07-24T07:39:49;3.97;;;3.30;;
11642;SDS011;5877;50.930;6.918;2022-07-24T07:42:37;3.53;;;3.20;;
11642;SDS011;5877;50.930;6.918;2022-07-24T07:45:24;3.35;;;3.05;;
11642;SDS011;5877;50.930;6.918;2022-07-24T07:48:17;5.25;;;3.38;;
11642;SDS011;5877;50.930;6.918;2022-07-24T07:51:05;3.33;;;3.03;;
11642;SDS011;5877;50.930;6.918;2022-07-24T07:53:52;3.33;;;3.03;;
11642;SDS011;5877;50.930;6.918;2022-07-24T07:56:40;3.55;;;3.28;;
11642;SDS011;5877;50.930;6.918;2022-07-24T07:59:28;5.32;;;3.13;;
11642;SDS011;5877;50.930;6.918;2022-07-24T08:02:15;4.10;;;3.03;;
11642;SDS011;5877;50.930;6.918;2022-07-24T08:05:03;3.50;;;3.20;;
11642;SDS011;5877;50.930;6.918;2022-07-24T08:07:51;3.22;;;2.92;;
11642;SDS011;5877;50.930;6.918;2022-07-24T08:10:39;3.42;;;3.05;;
11642;SDS011;5877;50.930;6.918;2022-07-24T08:13:26;3.90;;;3.42;;
11642;SDS011;5877;50.930;6.918;2022-07-24T08:16:14;3.13;;;2.92;;
11642;SDS011;5877;50.930;6.918;2022-07-24T08:19:02;3.40;;;3.10;;
11642;SDS011;5877;50.930;6.918;2022-07-24T08:21:51;3.53;;;3.00;;
11642;SDS011;5877;50.930;6.918;2022-07-24T08:24:38;5.05;;;2.90;;
11642;SDS011;5877;50.930;6.918;2022-07-24T08:27:26;3.63;;;3.00;;
11642;SDS011;5877;50.930;6.918;2022-07-24T08:30:14;4.22;;;3.05;;
11642;SDS011;5877;50.930;6.918;2022-07-24T08:33:01;3.45;;;3.15;;
11642;SDS011;5877;50.930;6.918;2022-07-24T08:35:49;4.70;;;3.50;;
11642;SDS011;5877;50.930;6.918;2022-07-24T08:38:36;5.32;;;3.45;;
11642;SDS011;5877;50.930;6.918;2022-07-24T08:41:26;4.07;;;3.13;;
11642;SDS011;5877;50.930;6.918;2022-07-24T08:44:19;4.38;;;3.40;;
11642;SDS011;5877;50.930;6.918;2022-07-24T08:47:07;6.25;;;3.50;;
11642;SDS011;5877;50.930;6.918;2022-07-24T08:49:58;5.97;;;3.25;;
11642;SDS011;5877;50.930;6.918;2022-07-24T08:52:47;3.97;;;3.15;;
11642;SDS011;5877;50.930;6.918;2022-07-24T08:55:35;4.55;;;3.42;;
11642;SDS011;5877;50.930;6.918;2022-07-24T08:58:22;4.78;;;3.70;;
11642;SDS011;5877;50.930;6.918;2022-07-24T09:01:09;4.38;;;3.05;;
11642;SDS011;5877;50.930;6.918;2022-07-24T09:03:57;3.95;;;3.45;;
11642;SDS011;5877;50.930;6.918;2022-07-24T09:06:55;7.45;;;3.45;;
11642;SDS011;5877;50.930;6.918;2022-07-24T09:09:52;4.07;;;3.22;;
11642;SDS011;5877;50.930;6.918;2022-07-24T09:12:49;4.05;;;3.47;;
11642;SDS011;5877;50.930;6.918;2022-07-24T09:15:44;3.58;;;3.13;;
11642;SDS011;5877;50.930;6.918;2022-07-24T09:18:36;4.13;;;3.72;;
11642;SDS011;5877;50.930;6.918;2022-07-24T09:21:24;4.13;;;3.70;;
11642;SDS011;5877;50.930;6.918;2022-07-24T09:24:16;4.18;;;3.33;;
11642;SDS011;5877;50.930;6.918;2022-07-24T09:27:05;4.40;;;3.42;;
11642;SDS011;5877;50.930;6.918;2022-07-24T09:30:01;3.90;;;3.33;;
11642;SDS011;5877;50.930;6.918;2022-07-24T09:32:57;4.50;;;3.33;;
11642;SDS011;5877;50.930;6.918;2022-07-24T09:35:48;4.03;;;3.38;;
11642;SDS011;5877;50.930;6.918;2022-07-24T09:39:17;3.63;;;3.33;;
11642;SDS011;5877;50.930;6.918;2022-07-24T09:42:05;5.07;;;3.83;;
11642;SDS011;5877;50.930;6.918;2022-07-24T09:44:56;5.10;;;4.10;;
11642;SDS011;5877;50.930;6.918;2022-07-24T09:47:44;3.85;;;3.55;;
11642;SDS011;5877;50.930;6.918;2022-07-24T09:50:33;7.60;;;3.65;;
11642;SDS011;5877;50.930;6.918;2022-07-24T09:53:23;5.60;;;3.40;;
11642;SDS011;5877;50.930;6.918;2022-07-24T09:56:13;4.35;;;3.85;;
11642;SDS011;5877;50.930;6.918;2022-07-24T09:59:02;4.57;;;3.97;;
11642;SDS011;5877;50.930;6.918;2022-07-24T10:01:55;5.80;;;4.22;;
11642;SDS011;5877;50.930;6.918;2022-07-24T10:04:43;4.20;;;3.80;;
11642;SDS011;5877;50.930;6.918;2022-07-24T10:07:31;4.43;;;4.03;;
11642;SDS011;5877;50.930;6.918;2022-07-24T10:10:19;5.32;;;4.13;;
11642;SDS011;5877;50.930;6.918;2022-07-24T10:13:07;4.25;;;3.60;;
11642;SDS011;5877;50.930;6.918;2022-07-24T10:19:00;5.78;;;4.28;;
11642;SDS011;5877;50.930;6.918;2022-07-24T10:21:53;4.13;;;3.72;;
11642;SDS011;5877;50.930;6.918;2022-07-24T10:27:48;4.85;;;4.43;;
11642;SDS011;5877;50.930;6.918;2022-07-24T10:30:39;7.32;;;4.85;;
11642;SDS011;5877;50.930;6.918;2022-07-24T10:33:31;4.60;;;4.15;;
11642;SDS011;5877;50.930;6.918;2022-07-24T10:36:22;5.28;;;4.38;;
11642;SDS011;5877;50.930;6.918;2022-07-24T10:39:16;5.32;;;4.35;;
11642;SDS011;5877;50.930;6.918;2022-07-24T10:42:08;5.38;;;4.35;;
11642;SDS011;5877;50.930;6.918;2022-07-24T10:45:39;5.18;;;4.38;;
11642;SDS011;5877;50.930;6.918;2022-07-24T10:51:12;4.63;;;4.22;;
11642;SDS011;5877;50.930;6.918;2022-07-24T10:54:07;8.52;;;4.20;;
11642;SDS011;5877;50.930;6.918;2022-07-24T10:57:04;4.88;;;4.40;;
11642;SDS011;5877;50.930;6.918;2022-07-24T10:59:52;5.80;;;4.38;;
11642;SDS011;5877;50.930;6.918;2022-07-24T11:02:47;4.55;;;4.05;;
11642;SDS011;5877;50.930;6.918;2022-07-24T11:08:57;6.88;;;4.43;;
11642;SDS011;5877;50.930;6.918;2022-07-24T11:17:36;7.18;;;4.53;;
11642;SDS011;5877;50.930;6.918;2022-07-24T11:20:32;8.15;;;5.00;;
11642;SDS011;5877;50.930;6.918;2022-07-24T11:23:20;6.35;;;4.28;;
11642;SDS011;5877;50.930;6.918;2022-07-24T11:29:20;5.30;;;4.80;;
11642;SDS011;5877;50.930;6.918;2022-07-24T11:32:14;6.60;;;4.50;;
11642;SDS011;5877;50.930;6.918;2022-07-24T11:35:05;4.95;;;4.47;;
11642;SDS011;5877;50.930;6.918;2022-07-24T11:37:54;5.17;;;4.20;;
11642;SDS011;5877;50.930;6.918;2022-07-24T11:40:41;4.93;;;4.53;;
11642;SDS011;5877;50.930;6.918;2022-07-24T11:43:29;5.80;;;4.25;;
11642;SDS011;5877;50.930;6.918;2022-07-24T11:46:32;4.50;;;4.10;;
11642;SDS011;5877;50.930;6.918;2022-07-24T11:49:24;6.93;;;4.20;;
11642;SDS011;5877;50.930;6.918;2022-07-24T11:52:13;4.60;;;4.20;;
11642;SDS011;5877;50.930;6.918;2022-07-24T11:55:13;6.03;;;4.15;;
11642;SDS011;5877;50.930;6.918;2022-07-24T11:58:04;5.80;;;3.88;;
11642;SDS011;5877;50.930;6.918;2022-07-24T12:01:18;5.32;;;4.60;;
11642;SDS011;5877;50.930;6.918;2022-07-24T12:04:07;5.97;;;4.35;;
11642;SDS011;5877;50.930;6.918;2022-07-24T12:06:55;4.57;;;4.18;;
11642;SDS011;5877;50.930;6.918;2022-07-24T12:09:43;4.60;;;4.13;;
11642;SDS011;5877;50.930;6.918;2022-07-24T12:12:38;5.85;;;4.10;;
11642;SDS011;5877;50.930;6.918;2022-07-24T12:15:27;4.57;;;4.03;;
11642;SDS011;5877;50.930;6.918;2022-07-24T12:18:17;4.55;;;4.15;;
11642;SDS011;5877;50.930;6.918;2022-07-24T12:21:12;4.45;;;4.05;;
11642;SDS011;5877;50.930;6.918;2022-07-24T12:24:01;4.85;;;4.10;;
11642;SDS011;5877;50.930;6.918;2022-07-24T12:26:56;4.50;;;4.00;;
11642;SDS011;5877;50.930;6.918;2022-07-24T12:29:45;5.10;;;4.30;;
11642;SDS011;5877;50.930;6.918;2022-07-24T12:32:32;5.88;;;4.32;;
11642;SDS011;5877;50.930;6.918;2022-07-24T12:35:20;8.52;;;4.20;;
11642;SDS011;5877;50.930;6.918;2022-07-24T12:38:11;4.35;;;3.95;;
11642;SDS011;5877;50.930;6.918;2022-07-24T12:41:08;5.78;;;3.97;;
11642;SDS011;5877;50.930;6.918;2022-07-24T12:43:59;5.18;;;3.90;;
11642;SDS011;5877;50.930;6.918;2022-07-24T12:46:48;5.00;;;4.07;;
11642;SDS011;5877;50.930;6.918;2022-07-24T12:49:39;6.15;;;4.20;;
11642;SDS011;5877;50.930;6.918;2022-07-24T12:52:28;5.32;;;3.92;;
11642;SDS011;5877;50.930;6.918;2022-07-24T12:55:36;3.90;;;3.60;;
11642;SDS011;5877;50.930;6.918;2022-07-24T12:58:26;4.07;;;3.70;;
11642;SDS011;5877;50.930;6.918;2022-07-24T13:01:14;4.30;;;3.88;;
11642;SDS011;5877;50.930;6.918;2022-07-24T13:04:30;5.15;;;4.00;;
11642;SDS011;5877;50.930;6.918;2022-07-24T13:07:51;5.75;;;3.88;;
11642;SDS011;5877;50.930;6.918;2022-07-24T13:10:39;4.22;;;3.92;;
11642;SDS011;5877;50.930;6.918;2022-07-24T13:13:26;4.00;;;3.67;;
11642;SDS011;5877;50.930;6.918;2022-07-24T13:16:14;5.13;;;4.00;;
11642;SDS011;5877;50.930;6.918;2022-07-24T13:19:01;4.40;;;4.00;;
11642;SDS011;5877;50.930;6.918;2022-07-24T13:21:50;5.50;;;4.50;;
11642;SDS011;5877;50.930;6.918;2022-07-24T13:24:37;7.07;;;4.93;;
11642;SDS011;5877;50.930;6.918;2022-07-24T13:27:25;4.15;;;3.75;;
11642;SDS011;5877;50.930;6.918;2022-07-24T13:30:12;4.10;;;3.80;;
11642;SDS011;5877;50.930;6.918;2022-07-24T13:33:00;4.47;;;4.00;;
11642;SDS011;5877;50.930;6.918;2022-07-24T13:35:48;4.40;;;3.97;;
11642;SDS011;5877;50.930;6.918;2022-07-24T13:38:35;3.85;;;3.55;;
11642;SDS011;5877;50.930;6.918;2022-07-24T13:41:23;4.18;;;3.50;;
11642;SDS011;5877;50.930;6.918;2022-07-24T13:44:11;4.13;;;3.72;;
11642;SDS011;5877;50.930;6.918;2022-07-24T13:46:58;3.70;;;3.40;;
11642;SDS011;5877;50.930;6.918;2022-07-24T13:49:45;4.47;;;4.07;;
11642;SDS011;5877;50.930;6.918;2022-07-24T13:52:33;4.43;;;4.03;;
11642;SDS011;5877;50.930;6.918;2022-07-24T13:55:21;4.10;;;3.80;;
11642;SDS011;5877;50.930;6.918;2022-07-24T13:58:16;5.47;;;3.85;;
11642;SDS011;5877;50.930;6.918;2022-07-24T14:01:04;4.03;;;3.40;;
11642;SDS011;5877;50.930;6.918;2022-07-24T14:03:52;4.50;;;3.78;;
11642;SDS011;5877;50.930;6.918;2022-07-24T14:06:59;5.05;;;3.75;;
11642;SDS011;5877;50.930;6.918;2022-07-24T14:09:47;3.92;;;3.53;;
11642;SDS011;5877;50.930;6.918;2022-07-24T14:12:34;5.68;;;4.00;;
11642;SDS011;5877;50.930;6.918;2022-07-24T14:15:21;4.93;;;3.78;;
11642;SDS011;5877;50.930;6.918;2022-07-24T14:18:09;4.45;;;3.70;;
11642;SDS011;5877;50.930;6.918;2022-07-24T14:20:56;5.78;;;4.28;;
11642;SDS011;5877;50.930;6.918;2022-07-24T14:23:44;4.10;;;3.80;;
11642;SDS011;5877;50.930;6.918;2022-07-24T14:26:31;5.10;;;4.00;;
11642;SDS011;5877;50.930;6.918;2022-07-24T14:29:18;3.80;;;3.50;;
11642;SDS011;5877;50.930;6.918;2022-07-24T14:32:06;3.85;;;3.55;;
11642;SDS011;5877;50.930;6.918;2022-07-24T14:34:54;4.35;;;3.60;;
11642;SDS011;5877;50.930;6.918;2022-07-24T14:37:41;3.35;;;3.10;;
11642;SDS011;5877;50.930;6.918;2022-07-24T14:40:29;3.72;;;3.42;;
11642;SDS011;5877;50.930;6.918;2022-07-24T14:43:16;3.92;;;3.60;;
11642;SDS011;5877;50.930;6.918;2022-07-24T14:46:04;3.80;;;3.50;;
11642;SDS011;5877;50.930;6.918;2022-07-24T14:48:51;4.90;;;4.50;;
11642;SDS011;5877;50.930;6.918;2022-07-24T14:51:39;4.35;;;3.72;;
11642;SDS011;5877;50.930;6.918;2022-07-24T14:54:27;3.78;;;3.38;;
11642;SDS011;5877;50.930;6.918;2022-07-24T14:57:14;3.83;;;3.53;;
11642;SDS011;5877;50.930;6.918;2022-07-24T15:00:03;4.15;;;3.85;;
11642;SDS011;5877;50.930;6.918;2022-07-24T15:02:52;4.88;;;3.47;;
11642;SDS011;5877;50.930;6.918;2022-07-24T15:05:39;4.80;;;3.78;;
11642;SDS011;5877;50.930;6.918;2022-07-24T15:08:27;4.03;;;3.60;;
11642;SDS011;5877;50.930;6.918;2022-07-24T15:11:14;3.90;;;3.50;;
11642;SDS011;5877;50.930;6.918;2022-07-24T15:14:02;3.58;;;3.28;;
11642;SDS011;5877;50.930;6.918;2022-07-24T15:16:50;4.35;;;3.95;;
11642;SDS011;5877;50.930;6.918;2022-07-24T15:19:38;3.80;;;3.50;;
11642;SDS011;5877;50.930;6.918;2022-07-24T15:22:25;3.75;;;3.30;;
11642;SDS011;5877;50.930;6.918;2022-07-24T15:25:13;5.38;;;3.63;;
11642;SDS011;5877;50.930;6.918;2022-07-24T15:28:00;3.65;;;3.35;;
11642;SDS011;5877;50.930;6.918;2022-07-24T15:30:50;3.83;;;3.50;;
11642;SDS011;5877;50.930;6.918;2022-07-24T15:33:38;4.55;;;4.15;;
11642;SDS011;5877;50.930;6.918;2022-07-24T15:36:26;3.95;;;3.65;;
11642;SDS011;5877;50.930;6.918;2022-07-24T15:39:13;4.88;;;4.35;;
11642;SDS011;5877;50.930;6.918;2022-07-24T15:42:01;5.35;;;4.10;;
11642;SDS011;5877;50.930;6.918;2022-07-24T15:44:48;5.43;;;3.60;;
11642;SDS011;5877;50.930;6.918;2022-07-24T15:47:35;4.10;;;3.70;;
11642;SDS011;5877;50.930;6.918;2022-07-24T15:50:23;4.47;;;3.80;;
11642;SDS011;5877;50.930;6.918;2022-07-24T15:53:10;3.80;;;3.50;;
11642;SDS011;5877;50.930;6.918;2022-07-24T15:55:58;4.22;;;3.92;;
11642;SDS011;5877;50.930;6.918;2022-07-24T15:58:46;4.13;;;3.80;;
11642;SDS011;5877;50.930;6.918;2022-07-24T16:01:33;5.38;;;4.10;;
11642;SDS011;5877;50.930;6.918;2022-07-24T16:04:39;3.90;;;3.60;;
11642;SDS011;5877;50.930;6.918;2022-07-24T16:07:27;5.15;;;4.00;;
11642;SDS011;5877;50.930;6.918;2022-07-24T16:10:14;4.07;;;3.67;;
11642;SDS011;5877;50.930;6.918;2022-07-24T16:13:03;4.30;;;3.80;;
11642;SDS011;5877;50.930;6.918;2022-07-24T16:15:50;4.72;;;4.32;;
11642;SDS011;5877;50.930;6.918;2022-07-24T16:18:38;7.47;;;3.95;;
11642;SDS011;5877;50.930;6.918;2022-07-24T16:21:25;4.15;;;3.75;;
11642;SDS011;5877;50.930;6.918;2022-07-24T16:24:13;4.80;;;4.28;;
11642;SDS011;5877;50.930;6.918;2022-07-24T16:27:01;4.53;;;3.50;;
11642;SDS011;5877;50.930;6.918;2022-07-24T16:29:48;3.97;;;3.67;;
11642;SDS011;5877;50.930;6.918;2022-07-24T16:32:35;4.90;;;3.50;;
11642;SDS011;5877;50.930;6.918;2022-07-24T16:35:22;4.50;;;4.03;;
11642;SDS011;5877;50.930;6.918;2022-07-24T16:38:10;4.25;;;3.85;;
11642;SDS011;5877;50.930;6.918;2022-07-24T16:40:57;4.82;;;4.20;;
11642;SDS011;5877;50.930;6.918;2022-07-24T16:43:45;4.20;;;3.90;;
11642;SDS011;5877;50.930;6.918;2022-07-24T16:46:33;4.43;;;3.92;;
11642;SDS011;5877;50.930;6.918;2022-07-24T16:49:20;3.97;;;3.67;;
11642;SDS011;5877;50.930;6.918;2022-07-24T16:52:08;4.30;;;3.90;;
11642;SDS011;5877;50.930;6.918;2022-07-24T16:54:58;4.15;;;3.60;;
11642;SDS011;5877;50.930;6.918;2022-07-24T16:57:46;4.68;;;4.28;;
11642;SDS011;5877;50.930;6.918;2022-07-24T17:00:34;4.28;;;3.70;;
11642;SDS011;5877;50.930;6.918;2022-07-24T17:03:22;4.10;;;3.70;;
11642;SDS011;5877;50.930;6.918;2022-07-24T17:06:09;4.40;;;4.00;;
11642;SDS011;5877;50.930;6.918;2022-07-24T17:08:57;4.07;;;3.67;;
11642;SDS011;5877;50.930;6.918;2022-07-24T17:11:45;4.90;;;3.42;;
11642;SDS011;5877;50.930;6.918;2022-07-24T17:14:32;4.13;;;3.58;;
11642;SDS011;5877;50.930;6.918;2022-07-24T17:17:21;4.20;;;3.60;;
11642;SDS011;5877;50.930;6.918;2022-07-24T17:20:10;3.92;;;3.63;;
11642;SDS011;5877;50.930;6.918;2022-07-24T17:22:58;5.05;;;3.90;;
11642;SDS011;5877;50.930;6.918;2022-07-24T17:25:47;3.90;;;3.50;;
11642;SDS011;5877;50.930;6.918;2022-07-24T17:28:34;4.50;;;3.85;;
11642;SDS011;5877;50.930;6.918;2022-07-24T17:31:22;3.97;;;3.60;;
11642;SDS011;5877;50.930;6.918;2022-07-24T17:34:11;4.40;;;4.00;;